sensor_id;sensor_type;location;lat;lon;timestamp;pressure;altitude;pressure_sealevel;temperature;humidity
5814;BME280;2933;52.302;8.134;2023-03-26T00:03:36;99490.84;;;6.69;100.00
5814;BME280;2933;52.302;8.134;2023-03-26T00:08:39;99502.78;;;6.72;100.00
5814;BME280;2933;52.302;8.134;2023-03-26T00:13:41;99507.97;;;6.72;100.00
5814;BME280;2933;52.302;8.134;2023-03-26T00:18:45;99508.44;;;6.78;100.00
5814;BME280;2933;52.302;8.134;2023-03-26T00:23:48;99512.91;;;6.76;100.00
5814;BME280;2933;52.302;8.134;2023-03-26T00:28:49;99514.38;;;6.81;100.00
5814;BME280;2933;52.302;8.134;2023-03-26T00:33:52;99517.72;;;6.83;100.00
5814;BME280;2933;52.302;8.134;2023-03-26T00:38:54;99519.38;;;6.84;100.00
5814;BME280;2933;52.302;8.134;2023-03-26T00:43:57;99512.91;;;6.76;100.00
5814;BME280;2933;52.302;8.134;2023-03-26T00:49:00;99524.38;;;6.72;100.00
5814;BME280;2933;52.302;8.134;2023-03-26T00:54:03;99524.56;;;6.69;100.00
5814;BME280;2933;52.302;8.134;2023-03-26T00:59:06;99533.09;;;6.57;100.00
5814;BME280;2933;52.302;8.134;2023-03-26T01:04:24;99534.66;;;6.59;100.00
5814;BME280;2933;52.302;8.134;2023-03-26T01:09:31;99537.72;;;6.66;100.00
5814;BME280;2933;52.302;8.134;2023-03-26T01:14:34;99536.69;;;6.69;100.00
5814;BME280;2933;52.302;8.134;2023-03-26T01:19:44;99520.97;;;6.72;100.00
5814;BME280;2933;52.302;8.134;2023-03-26T01:24:50;99518.91;;;6.62;100.00
5814;BME280;2933;52.302;8.134;2023-03-26T01:29:59;99518.47;;;6.70;100.00
5814;BME280;2933;52.302;8.134;2023-03-26T01:35:15;99507.88;;;6.73;100.00
5814;BME280;2933;52.302;8.134;2023-03-26T01:40:24;99505.91;;;6.62;100.00
5814;BME280;2933;52.302;8.134;2023-03-26T01:45:31;99501.22;;;6.69;100.00
5814;BME280;2933;52.302;8.134;2023-03-26T01:50:34;99499.09;;;6.61;100.00
5814;BME280;2933;52.302;8.134;2023-03-26T01:55:44;99488.31;;;6.53;100.00
5814;BME280;2933;52.302;8.134;2023-03-26T02:00:53;99476.81;;;6.57;100.00
5814;BME280;2933;52.302;8.134;2023-03-26T02:06:04;99482.59;;;6.48;100.00
5814;BME280;2933;52.302;8.134;2023-03-26T02:11:13;99483.22;;;6.37;100.00
5814;BME280;2933;52.302;8.134;2023-03-26T02:16:16;99481.47;;;6.52;100.00
5814;BME280;2933;52.302;8.134;2023-03-26T02:21:21;99474.50;;;6.38;100.00
5814;BME280;2933;52.302;8.134;2023-03-26T02:26:26;99473.28;;;6.44;100.00
5814;BME280;2933;52.302;8.134;2023-03-26T02:31:28;99467.75;;;6.50;100.00
5814;BME280;2933;52.302;8.134;2023-03-26T02:36:29;99470.91;;;6.41;100.00
5814;BME280;2933;52.302;8.134;2023-03-26T02:41:34;99457.94;;;6.41;100.00
5814;BME280;2933;52.302;8.134;2023-03-26T02:46:35;99446.97;;;6.21;100.00
5814;BME280;2933;52.302;8.134;2023-03-26T02:51:37;99442.41;;;6.10;100.00
5814;BME280;2933;52.302;8.134;2023-03-26T02:56:42;99447.81;;;6.07;100.00
5814;BME280;2933;52.302;8.134;2023-03-26T03:01:46;99450.91;;;5.98;100.00
5814;BME280;2933;52.302;8.134;2023-03-26T03:06:56;99444.88;;;5.97;100.00
5814;BME280;2933;52.302;8.134;2023-03-26T03:12:08;99439.22;;;5.91;100.00
5814;BME280;2933;52.302;8.134;2023-03-26T03:17:09;99433.19;;;5.90;100.00
5814;BME280;2933;52.302;8.134;2023-03-26T03:22:12;99435.13;;;5.87;100.00
5814;BME280;2933;52.302;8.134;2023-03-26T03:27:15;99437.88;;;6.00;100.00
5814;BME280;2933;52.302;8.134;2023-03-26T03:32:18;99435.19;;;6.01;100.00
5814;BME280;2933;52.302;8.134;2023-03-26T03:37:21;99430.75;;;6.03;100.00
5814;BME280;2933;52.302;8.134;2023-03-26T03:42:26;99429.09;;;6.02;100.00
5814;BME280;2933;52.302;8.134;2023-03-26T03:47:28;99424.94;;;6.14;100.00
5814;BME280;2933;52.302;8.134;2023-03-26T03:52:29;99421.69;;;6.10;100.00
5814;BME280;2933;52.302;8.134;2023-03-26T03:57:32;99426.31;;;6.05;100.00
5814;BME280;2933;52.302;8.134;2023-03-26T04:02:34;99402.66;;;5.95;100.00
5814;BME280;2933;52.302;8.134;2023-03-26T04:07:36;99405.34;;;5.94;100.00
5814;BME280;2933;52.302;8.134;2023-03-26T04:12:38;99415.25;;;5.87;100.00
5814;BME280;2933;52.302;8.134;2023-03-26T04:17:40;99406.91;;;5.82;100.00
5814;BME280;2933;52.302;8.134;2023-03-26T04:22:43;99397.09;;;5.87;100.00
5814;BME280;2933;52.302;8.134;2023-03-26T04:27:47;99394.97;;;5.94;100.00
5814;BME280;2933;52.302;8.134;2023-03-26T04:32:49;99400.59;;;5.86;100.00
5814;BME280;2933;52.302;8.134;2023-03-26T04:37:51;99396.19;;;5.88;100.00
5814;BME280;2933;52.302;8.134;2023-03-26T04:42:55;99395.31;;;5.88;100.00
5814;BME280;2933;52.302;8.134;2023-03-26T04:47:58;99382.72;;;5.81;100.00
5814;BME280;2933;52.302;8.134;2023-03-26T04:52:59;99390.81;;;5.91;100.00
5814;BME280;2933;52.302;8.134;2023-03-26T04:58:03;99385.69;;;6.06;100.00
5814;BME280;2933;52.302;8.134;2023-03-26T05:03:04;99381.44;;;6.19;100.00
5814;BME280;2933;52.302;8.134;2023-03-26T05:08:09;99382.78;;;6.10;100.00
5814;BME280;2933;52.302;8.134;2023-03-26T05:13:11;99372.97;;;6.01;100.00
5814;BME280;2933;52.302;8.134;2023-03-26T05:18:13;99363.03;;;5.93;100.00
5814;BME280;2933;52.302;8.134;2023-03-26T05:23:14;99366.56;;;5.92;100.00
5814;BME280;2933;52.302;8.134;2023-03-26T05:28:17;99361.38;;;5.92;100.00
5814;BME280;2933;52.302;8.134;2023-03-26T05:33:20;99365.63;;;5.93;100.00
5814;BME280;2933;52.302;8.134;2023-03-26T05:38:21;99360.34;;;5.95;100.00
5814;BME280;2933;52.302;8.134;2023-03-26T05:43:24;99360.34;;;5.95;100.00
5814;BME280;2933;52.302;8.134;2023-03-26T05:48:27;99351.66;;;5.96;100.00
5814;BME280;2933;52.302;8.134;2023-03-26T05:53:28;99343.13;;;5.94;100.00
5814;BME280;2933;52.302;8.134;2023-03-26T05:58:33;99338.44;;;6.01;100.00
5814;BME280;2933;52.302;8.134;2023-03-26T06:03:36;99336.09;;;6.10;100.00
5814;BME280;2933;52.302;8.134;2023-03-26T06:08:38;99337.34;;;6.19;100.00
5814;BME280;2933;52.302;8.134;2023-03-26T06:13:42;99325.34;;;6.31;100.00
5814;BME280;2933;52.302;8.134;2023-03-26T06:18:43;99328.22;;;6.41;100.00
5814;BME280;2933;52.302;8.134;2023-03-26T06:23:46;99324.50;;;6.45;100.00
5814;BME280;2933;52.302;8.134;2023-03-26T06:28:50;99319.13;;;6.48;100.00
5814;BME280;2933;52.302;8.134;2023-03-26T06:33:52;99318.22;;;6.35;100.00
5814;BME280;2933;52.302;8.134;2023-03-26T06:38:53;99313.41;;;6.43;100.00
5814;BME280;2933;52.302;8.134;2023-03-26T06:43:56;99318.09;;;6.51;100.00
5814;BME280;2933;52.302;8.134;2023-03-26T06:48:58;99315.75;;;6.60;100.00
5814;BME280;2933;52.302;8.134;2023-03-26T06:54:00;99312.69;;;6.68;100.00
5814;BME280;2933;52.302;8.134;2023-03-26T06:59:02;99313.09;;;6.75;100.00
5814;BME280;2933;52.302;8.134;2023-03-26T07:04:04;99307.53;;;6.81;100.00
5814;BME280;2933;52.302;8.134;2023-03-26T07:09:06;99303.47;;;6.77;100.00
5814;BME280;2933;52.302;8.134;2023-03-26T07:14:09;99302.28;;;6.68;100.00
5814;BME280;2933;52.302;8.134;2023-03-26T07:19:10;99291.00;;;6.69;100.00
5814;BME280;2933;52.302;8.134;2023-03-26T07:24:12;99286.44;;;6.73;100.00
5814;BME280;2933;52.302;8.134;2023-03-26T07:29:19;99281.16;;;6.74;100.00
5814;BME280;2933;52.302;8.134;2023-03-26T07:34:36;99281.88;;;6.76;100.00
5814;BME280;2933;52.302;8.134;2023-03-26T07:39:43;99275.13;;;6.74;100.00
5814;BME280;2933;52.302;8.134;2023-03-26T07:44:54;99282.41;;;6.82;100.00
5814;BME280;2933;52.302;8.134;2023-03-26T07:49:58;99263.09;;;6.86;100.00
5814;BME280;2933;52.302;8.134;2023-03-26T07:55:00;99272.03;;;6.82;100.00
5814;BME280;2933;52.302;8.134;2023-03-26T08:00:06;99263.34;;;7.08;100.00
5814;BME280;2933;52.302;8.134;2023-03-26T08:05:18;99269.41;;;7.22;100.00
5814;BME280;2933;52.302;8.134;2023-03-26T08:10:22;99259.16;;;7.46;100.00
5814;BME280;2933;52.302;8.134;2023-03-26T08:15:31;99255.31;;;7.65;100.00
5814;BME280;2933;52.302;8.134;2023-03-26T08:20:38;99270.28;;;7.61;100.00
5814;BME280;2933;52.302;8.134;2023-03-26T08:25:50;99271.94;;;7.62;100.00
5814;BME280;2933;52.302;8.134;2023-03-26T08:30:55;99273.50;;;7.65;100.00
5814;BME280;2933;52.302;8.134;2023-03-26T08:35:57;99263.59;;;7.83;100.00
5814;BME280;2933;52.302;8.134;2023-03-26T08:41:36;99266.31;;;7.81;100.00
5814;BME280;2933;52.302;8.134;2023-03-26T08:46:56;99270.41;;;8.09;100.00
5814;BME280;2933;52.302;8.134;2023-03-26T08:52:27;99273.28;;;8.18;100.00
5814;BME280;2933;52.302;8.134;2023-03-26T08:57:58;99262.81;;;8.06;100.00
5814;BME280;2933;52.302;8.134;2023-03-26T09:09:12;99242.59;;;7.86;100.00
5814;BME280;2933;52.302;8.134;2023-03-26T09:20:07;99244.66;;;8.31;100.00
5814;BME280;2933;52.302;8.134;2023-03-26T09:31:26;99235.97;;;8.43;100.00
5814;BME280;2933;52.302;8.134;2023-03-26T09:37:04;99232.25;;;8.34;100.00
5814;BME280;2933;52.302;8.134;2023-03-26T09:42:16;99236.53;;;8.60;100.00
5814;BME280;2933;52.302;8.134;2023-03-26T09:47:38;99236.06;;;8.41;100.00
5814;BME280;2933;52.302;8.134;2023-03-26T09:52:52;99234.19;;;8.44;100.00
5814;BME280;2933;52.302;8.134;2023-03-26T09:58:12;99234.28;;;8.55;100.00
5814;BME280;2933;52.302;8.134;2023-03-26T10:03:35;99232.59;;;8.30;100.00
5814;BME280;2933;52.302;8.134;2023-03-26T10:09:01;99235.81;;;8.20;100.00
5814;BME280;2933;52.302;8.134;2023-03-26T10:14:15;99239.28;;;8.21;100.00
5814;BME280;2933;52.302;8.134;2023-03-26T10:19:37;99232.91;;;8.25;100.00
5814;BME280;2933;52.302;8.134;2023-03-26T10:25:04;99230.59;;;8.33;100.00
5814;BME280;2933;52.302;8.134;2023-03-26T10:30:29;99233.06;;;8.11;100.00
5814;BME280;2933;52.302;8.134;2023-03-26T10:35:40;99234.25;;;8.31;100.00
5814;BME280;2933;52.302;8.134;2023-03-26T10:40:57;99241.50;;;8.38;100.00
5814;BME280;2933;52.302;8.134;2023-03-26T10:46:17;99238.28;;;8.11;100.00
5814;BME280;2933;52.302;8.134;2023-03-26T10:51:39;99243.91;;;8.04;100.00
5814;BME280;2933;52.302;8.134;2023-03-26T10:56:44;99228.63;;;8.00;100.00
5814;BME280;2933;52.302;8.134;2023-03-26T11:01:56;99237.00;;;8.16;100.00
5814;BME280;2933;52.302;8.134;2023-03-26T11:07:05;99228.88;;;8.08;100.00
5814;BME280;2933;52.302;8.134;2023-03-26T11:12:20;99233.13;;;8.22;100.00
5814;BME280;2933;52.302;8.134;2023-03-26T11:17:32;99229.91;;;8.43;100.00
5814;BME280;2933;52.302;8.134;2023-03-26T11:22:47;99228.94;;;8.32;100.00
5814;BME280;2933;52.302;8.134;2023-03-26T11:28:01;99226.78;;;8.50;100.00
5814;BME280;2933;52.302;8.134;2023-03-26T11:33:13;99239.31;;;8.69;100.00
5814;BME280;2933;52.302;8.134;2023-03-26T11:38:20;99225.09;;;8.98;100.00
5814;BME280;2933;52.302;8.134;2023-03-26T11:43:28;99237.72;;;8.91;100.00
5814;BME280;2933;52.302;8.134;2023-03-26T11:48:37;99220.44;;;8.90;100.00
5814;BME280;2933;52.302;8.134;2023-03-26T11:53:41;99220.38;;;9.03;100.00
5814;BME280;2933;52.302;8.134;2023-03-26T11:58:49;99221.00;;;8.82;100.00
5814;BME280;2933;52.302;8.134;2023-03-26T12:03:58;99222.38;;;8.75;100.00
5814;BME280;2933;52.302;8.134;2023-03-26T12:09:03;99226.13;;;8.60;100.00
5814;BME280;2933;52.302;8.134;2023-03-26T12:14:05;99218.09;;;8.98;100.00
5814;BME280;2933;52.302;8.134;2023-03-26T12:19:18;99218.81;;;9.00;100.00
5814;BME280;2933;52.302;8.134;2023-03-26T12:24:26;99221.69;;;8.73;100.00
5814;BME280;2933;52.302;8.134;2023-03-26T12:29:29;99220.69;;;8.63;100.00
5814;BME280;2933;52.302;8.134;2023-03-26T12:34:36;99211.69;;;8.43;100.00
5814;BME280;2933;52.302;8.134;2023-03-26T12:39:39;99209.94;;;8.19;100.00
5814;BME280;2933;52.302;8.134;2023-03-26T12:44:44;99225.25;;;8.48;100.00
5814;BME280;2933;52.302;8.134;2023-03-26T12:49:48;99220.56;;;8.16;100.00
5814;BME280;2933;52.302;8.134;2023-03-26T12:54:56;99226.88;;;7.87;100.00
5814;BME280;2933;52.302;8.134;2023-03-26T13:00:26;99227.88;;;7.98;100.00
5814;BME280;2933;52.302;8.134;2023-03-26T13:05:38;99230.53;;;7.85;100.00
5814;BME280;2933;52.302;8.134;2023-03-26T13:10:47;99230.72;;;7.95;100.00
5814;BME280;2933;52.302;8.134;2023-03-26T13:15:51;99228.53;;;7.75;100.00
5814;BME280;2933;52.302;8.134;2023-03-26T13:21:00;99224.81;;;7.80;100.00
5814;BME280;2933;52.302;8.134;2023-03-26T13:26:12;99227.31;;;7.81;100.00
5814;BME280;2933;52.302;8.134;2023-03-26T13:31:20;99230.44;;;7.60;100.00
5814;BME280;2933;52.302;8.134;2023-03-26T13:36:33;99226.59;;;7.53;100.00
5814;BME280;2933;52.302;8.134;2023-03-26T13:42:00;99238.03;;;7.64;100.00
5814;BME280;2933;52.302;8.134;2023-03-26T13:47:06;99231.19;;;7.24;100.00
5814;BME280;2933;52.302;8.134;2023-03-26T13:52:18;99234.41;;;7.40;100.00
5814;BME280;2933;52.302;8.134;2023-03-26T13:57:25;99241.66;;;7.48;100.00
5814;BME280;2933;52.302;8.134;2023-03-26T14:02:34;99236.47;;;7.74;100.00
5814;BME280;2933;52.302;8.134;2023-03-26T14:07:42;99238.22;;;7.60;100.00
5814;BME280;2933;52.302;8.134;2023-03-26T14:12:50;99244.47;;;7.84;100.00
5814;BME280;2933;52.302;8.134;2023-03-26T14:18:00;99244.47;;;7.58;99.66
5814;BME280;2933;52.302;8.134;2023-03-26T14:23:20;99247.38;;;7.53;100.00
5814;BME280;2933;52.302;8.134;2023-03-26T14:28:45;99247.06;;;7.58;100.00
5814;BME280;2933;52.302;8.134;2023-03-26T14:33:58;99256.66;;;7.57;99.88
5814;BME280;2933;52.302;8.134;2023-03-26T14:39:17;99259.66;;;7.64;100.00
5814;BME280;2933;52.302;8.134;2023-03-26T14:44:55;99266.00;;;7.60;98.92
5814;BME280;2933;52.302;8.134;2023-03-26T14:50:28;99265.28;;;7.71;97.86
5814;BME280;2933;52.302;8.134;2023-03-26T15:01:25;99274.22;;;7.54;95.37
5814;BME280;2933;52.302;8.134;2023-03-26T15:07:01;99273.06;;;7.58;94.83
5814;BME280;2933;52.302;8.134;2023-03-26T15:12:23;99275.63;;;7.19;93.79
5814;BME280;2933;52.302;8.134;2023-03-26T15:17:56;99286.03;;;7.19;93.68
5814;BME280;2933;52.302;8.134;2023-03-26T15:23:44;99293.28;;;7.14;93.24
5814;BME280;2933;52.302;8.134;2023-03-26T15:29:02;99303.28;;;7.20;94.40
5814;BME280;2933;52.302;8.134;2023-03-26T15:44:37;99308.31;;;6.96;89.88
5814;BME280;2933;52.302;8.134;2023-03-26T15:49:46;99314.00;;;6.88;87.13
5814;BME280;2933;52.302;8.134;2023-03-26T15:54:56;99322.03;;;6.98;86.72
5814;BME280;2933;52.302;8.134;2023-03-26T16:00:11;99323.44;;;6.89;85.63
5814;BME280;2933;52.302;8.134;2023-03-26T16:05:39;99339.53;;;6.82;83.74
5814;BME280;2933;52.302;8.134;2023-03-26T16:10:49;99337.03;;;6.80;82.07
5814;BME280;2933;52.302;8.134;2023-03-26T16:15:54;99343.94;;;6.94;83.20
5814;BME280;2933;52.302;8.134;2023-03-26T16:26:51;99346.06;;;6.87;82.39
5814;BME280;2933;52.302;8.134;2023-03-26T16:32:03;99359.44;;;6.81;82.12
5814;BME280;2933;52.302;8.134;2023-03-26T16:37:34;99368.94;;;6.68;81.56
5814;BME280;2933;52.302;8.134;2023-03-26T16:42:37;99366.66;;;6.49;79.35
5814;BME280;2933;52.302;8.134;2023-03-26T16:47:46;99382.03;;;6.23;78.42
5814;BME280;2933;52.302;8.134;2023-03-26T16:52:56;99385.00;;;6.31;76.92
5814;BME280;2933;52.302;8.134;2023-03-26T16:58:03;99391.03;;;6.17;79.09
5814;BME280;2933;52.302;8.134;2023-03-26T17:03:25;99410.00;;;6.18;78.26
5814;BME280;2933;52.302;8.134;2023-03-26T17:08:34;99408.94;;;5.91;78.52
5814;BME280;2933;52.302;8.134;2023-03-26T17:13:43;99414.38;;;5.87;80.09
5814;BME280;2933;52.302;8.134;2023-03-26T17:18:55;99438.81;;;5.98;80.54
5814;BME280;2933;52.302;8.134;2023-03-26T17:24:08;99452.34;;;5.88;78.70
5814;BME280;2933;52.302;8.134;2023-03-26T17:29:25;99459.50;;;5.68;76.82
5814;BME280;2933;52.302;8.134;2023-03-26T17:34:39;99466.00;;;5.45;77.57
5814;BME280;2933;52.302;8.134;2023-03-26T17:45:35;99492.41;;;5.20;80.56
5814;BME280;2933;52.302;8.134;2023-03-26T17:50:46;99500.69;;;5.10;79.54
5814;BME280;2933;52.302;8.134;2023-03-26T17:55:51;99511.22;;;4.91;74.74
5814;BME280;2933;52.302;8.134;2023-03-26T18:00:57;99524.66;;;4.98;75.55
5814;BME280;2933;52.302;8.134;2023-03-26T18:06:07;99536.47;;;4.86;76.76
5814;BME280;2933;52.302;8.134;2023-03-26T18:11:49;99552.03;;;4.68;76.30
5814;BME280;2933;52.302;8.134;2023-03-26T18:16:57;99568.63;;;4.64;77.41
5814;BME280;2933;52.302;8.134;2023-03-26T18:22:03;99573.31;;;4.58;77.28
5814;BME280;2933;52.302;8.134;2023-03-26T18:27:09;99583.66;;;4.40;79.31
5814;BME280;2933;52.302;8.134;2023-03-26T18:32:19;99585.25;;;4.43;80.94
5814;BME280;2933;52.302;8.134;2023-03-26T18:37:27;99604.31;;;4.23;80.20
5814;BME280;2933;52.302;8.134;2023-03-26T18:42:31;99609.19;;;4.29;81.09
5814;BME280;2933;52.302;8.134;2023-03-26T18:47:33;99614.22;;;4.14;81.57
5814;BME280;2933;52.302;8.134;2023-03-26T18:52:37;99614.09;;;3.98;82.73
5814;BME280;2933;52.302;8.134;2023-03-26T18:57:40;99634.91;;;3.95;83.04
5814;BME280;2933;52.302;8.134;2023-03-26T19:02:42;99646.59;;;3.85;83.82
5814;BME280;2933;52.302;8.134;2023-03-26T19:07:46;99645.19;;;3.97;84.33
5814;BME280;2933;52.302;8.134;2023-03-26T19:12:54;99655.69;;;3.75;84.07
5814;BME280;2933;52.302;8.134;2023-03-26T19:17:58;99663.78;;;3.86;86.81
5814;BME280;2933;52.302;8.134;2023-03-26T19:23:10;99669.50;;;3.74;85.29
5814;BME280;2933;52.302;8.134;2023-03-26T19:28:19;99682.19;;;3.59;86.67
5814;BME280;2933;52.302;8.134;2023-03-26T19:33:22;99684.78;;;3.59;86.99
5814;BME280;2933;52.302;8.134;2023-03-26T19:38:27;99696.34;;;3.50;85.86
5814;BME280;2933;52.302;8.134;2023-03-26T19:43:28;99703.00;;;3.37;86.13
5814;BME280;2933;52.302;8.134;2023-03-26T19:48:33;99709.06;;;3.36;85.97
5814;BME280;2933;52.302;8.134;2023-03-26T19:53:42;99707.03;;;3.22;86.48
5814;BME280;2933;52.302;8.134;2023-03-26T19:58:43;99714.47;;;3.30;85.64
5814;BME280;2933;52.302;8.134;2023-03-26T20:03:46;99723.38;;;3.22;86.62
5814;BME280;2933;52.302;8.134;2023-03-26T20:08:50;99733.91;;;3.18;86.47
5814;BME280;2933;52.302;8.134;2023-03-26T20:13:52;99744.56;;;3.10;85.27
5814;BME280;2933;52.302;8.134;2023-03-26T20:18:54;99744.47;;;3.12;86.43
5814;BME280;2933;52.302;8.134;2023-03-26T20:23:57;99745.53;;;3.07;86.78
5814;BME280;2933;52.302;8.134;2023-03-26T20:28:59;99747.47;;;3.02;86.37
5814;BME280;2933;52.302;8.134;2023-03-26T20:34:01;99753.38;;;3.04;86.79
5814;BME280;2933;52.302;8.134;2023-03-26T20:39:04;99765.06;;;2.93;87.61
5814;BME280;2933;52.302;8.134;2023-03-26T20:44:10;99763.06;;;2.99;89.15
5814;BME280;2933;52.302;8.134;2023-03-26T20:49:13;99775.94;;;2.99;88.42
5814;BME280;2933;52.302;8.134;2023-03-26T20:54:18;99784.72;;;2.95;88.26
5814;BME280;2933;52.302;8.134;2023-03-26T20:59:21;99790.25;;;2.86;88.93
5814;BME280;2933;52.302;8.134;2023-03-26T21:04:26;99801.19;;;2.93;88.84
5814;BME280;2933;52.302;8.134;2023-03-26T21:09:29;99807.13;;;2.72;89.10
5814;BME280;2933;52.302;8.134;2023-03-26T21:14:35;99808.34;;;2.64;89.95
5814;BME280;2933;52.302;8.134;2023-03-26T21:19:39;99811.97;;;2.58;90.02
5814;BME280;2933;52.302;8.134;2023-03-26T21:24:50;99828.50;;;2.52;90.40
5814;BME280;2933;52.302;8.134;2023-03-26T21:29:56;99827.81;;;2.49;90.69
5814;BME280;2933;52.302;8.134;2023-03-26T21:34:59;99837.78;;;2.34;91.81
5814;BME280;2933;52.302;8.134;2023-03-26T21:40:05;99850.56;;;2.37;91.93
5814;BME280;2933;52.302;8.134;2023-03-26T21:45:14;99856.44;;;2.41;92.96
5814;BME280;2933;52.302;8.134;2023-03-26T21:50:18;99861.06;;;2.33;91.60
5814;BME280;2933;52.302;8.134;2023-03-26T21:55:23;99872.56;;;2.22;92.90
5814;BME280;2933;52.302;8.134;2023-03-26T22:00:28;99877.94;;;2.16;92.68
5814;BME280;2933;52.302;8.134;2023-03-26T22:05:38;99891.53;;;2.21;93.56
5814;BME280;2933;52.302;8.134;2023-03-26T22:10:42;99898.09;;;2.06;94.12
5814;BME280;2933;52.302;8.134;2023-03-26T22:15:44;99905.91;;;2.03;94.58
5814;BME280;2933;52.302;8.134;2023-03-26T22:20:45;99916.63;;;1.91;94.71
5814;BME280;2933;52.302;8.134;2023-03-26T22:25:48;99917.16;;;2.01;95.30
5814;BME280;2933;52.302;8.134;2023-03-26T22:30:50;99932.97;;;1.90;95.05
5814;BME280;2933;52.302;8.134;2023-03-26T22:35:54;99938.13;;;1.90;95.07
5814;BME280;2933;52.302;8.134;2023-03-26T22:40:57;99940.63;;;1.93;94.74
5814;BME280;2933;52.302;8.134;2023-03-26T22:45:58;99946.44;;;1.98;94.53
5814;BME280;2933;52.302;8.134;2023-03-26T22:51:02;99958.47;;;1.98;94.68
5814;BME280;2933;52.302;8.134;2023-03-26T22:56:07;99957.63;;;1.97;94.37
5814;BME280;2933;52.302;8.134;2023-03-26T23:01:11;99969.78;;;1.93;94.48
5814;BME280;2933;52.302;8.134;2023-03-26T23:06:14;99985.63;;;1.81;94.96
5814;BME280;2933;52.302;8.134;2023-03-26T23:11:19;99981.53;;;1.75;95.28
5814;BME280;2933;52.302;8.134;2023-03-26T23:16:21;99994.31;;;1.78;96.27
5814;BME280;2933;52.302;8.134;2023-03-26T23:21:22;100009.69;;;1.80;97.70
5814;BME280;2933;52.302;8.134;2023-03-26T23:26:26;100015.97;;;1.73;96.95
5814;BME280;2933;52.302;8.134;2023-03-26T23:31:28;100025.81;;;1.87;96.54
5814;BME280;2933;52.302;8.134;2023-03-26T23:36:30;100041.53;;;1.79;97.46
5814;BME280;2933;52.302;8.134;2023-03-26T23:41:33;100039.16;;;1.73;96.67
5814;BME280;2933;52.302;8.134;2023-03-26T23:46:35;100052.22;;;1.65;97.64
5814;BME280;2933;52.302;8.134;2023-03-26T23:51:40;100053.47;;;1.53;99.05
5814;BME280;2933;52.302;8.134;2023-03-26T23:56:43;100071.38;;;1.56;98.99
